sensor_id;sensor_type;location;lat;lon;timestamp;pressure;altitude;pressure_sealevel;temperature;humidity
18014;BME280;9132;47.946;10.394;2024-03-07T00:00:01;94384.50;;;2.20;100.00
18014;BME280;9132;47.946;10.394;2024-03-07T00:02:29;94382.72;;;2.20;100.00
18014;BME280;9132;47.946;10.394;2024-03-07T00:04:56;94381.78;;;2.21;100.00
18014;BME280;9132;47.946;10.394;2024-03-07T00:07:23;94376.69;;;2.20;100.00
18014;BME280;9132;47.946;10.394;2024-03-07T00:09:49;94379.44;;;2.18;100.00
18014;BME280;9132;47.946;10.394;2024-03-07T00:12:19;94378.47;;;2.19;100.00
18014;BME280;9132;47.946;10.394;2024-03-07T00:14:45;94381.34;;;2.16;100.00
18014;BME280;9132;47.946;10.394;2024-03-07T00:17:12;94383.56;;;2.21;100.00
18014;BME280;9132;47.946;10.394;2024-03-07T00:19:39;94385.88;;;2.24;100.00
18014;BME280;9132;47.946;10.394;2024-03-07T00:22:07;94382.44;;;2.23;100.00
18014;BME280;9132;47.946;10.394;2024-03-07T00:24:34;94383.28;;;2.24;100.00
18014;BME280;9132;47.946;10.394;2024-03-07T00:27:00;94384.75;;;2.26;100.00
18014;BME280;9132;47.946;10.394;2024-03-07T00:29:27;94384.91;;;2.25;100.00
18014;BME280;9132;47.946;10.394;2024-03-07T00:31:54;94391.63;;;2.27;100.00
18014;BME280;9132;47.946;10.394;2024-03-07T00:34:20;94386.44;;;2.27;100.00
18014;BME280;9132;47.946;10.394;2024-03-07T00:36:48;94387.38;;;2.26;100.00
18014;BME280;9132;47.946;10.394;2024-03-07T00:39:18;94379.00;;;2.23;100.00
18014;BME280;9132;47.946;10.394;2024-03-07T00:41:45;94389.84;;;2.28;100.00
18014;BME280;9132;47.946;10.394;2024-03-07T00:44:12;94383.13;;;2.25;100.00
18014;BME280;9132;47.946;10.394;2024-03-07T00:46:39;94382.03;;;2.28;100.00
18014;BME280;9132;47.946;10.394;2024-03-07T00:49:05;94380.94;;;2.30;100.00
18014;BME280;9132;47.946;10.394;2024-03-07T00:51:32;94374.91;;;2.30;100.00
18014;BME280;9132;47.946;10.394;2024-03-07T00:53:58;94374.50;;;2.25;100.00
18014;BME280;9132;47.946;10.394;2024-03-07T00:56:26;94374.22;;;2.28;100.00
18014;BME280;9132;47.946;10.394;2024-03-07T00:58:54;94379.16;;;2.31;100.00
18014;BME280;9132;47.946;10.394;2024-03-07T01:01:22;94372.72;;;2.35;100.00
18014;BME280;9132;47.946;10.394;2024-03-07T01:03:48;94370.53;;;2.30;100.00
18014;BME280;9132;47.946;10.394;2024-03-07T01:06:15;94370.38;;;2.22;100.00
18014;BME280;9132;47.946;10.394;2024-03-07T01:08:41;94375.31;;;2.25;100.00
18014;BME280;9132;47.946;10.394;2024-03-07T01:11:07;94369.97;;;2.27;100.00
18014;BME280;9132;47.946;10.394;2024-03-07T01:13:38;94367.25;;;2.28;100.00
18014;BME280;9132;47.946;10.394;2024-03-07T01:16:05;94367.94;;;2.30;100.00
18014;BME280;9132;47.946;10.394;2024-03-07T01:18:32;94371.34;;;2.31;100.00
18014;BME280;9132;47.946;10.394;2024-03-07T01:20:58;94370.94;;;2.26;100.00
18014;BME280;9132;47.946;10.394;2024-03-07T01:23:25;94352.16;;;2.22;100.00
18014;BME280;9132;47.946;10.394;2024-03-07T01:25:53;94353.53;;;2.26;100.00
18014;BME280;9132;47.946;10.394;2024-03-07T01:28:21;94356.28;;;2.25;100.00
18014;BME280;9132;47.946;10.394;2024-03-07T01:30:49;94353.41;;;2.28;100.00
18014;BME280;9132;47.946;10.394;2024-03-07T01:33:15;94353.41;;;2.28;100.00
18014;BME280;9132;47.946;10.394;2024-03-07T01:35:42;94346.25;;;2.30;100.00
18014;BME280;9132;47.946;10.394;2024-03-07T01:38:08;94345.97;;;2.33;100.00
18014;BME280;9132;47.946;10.394;2024-03-07T01:40:36;94345.03;;;2.34;100.00
18014;BME280;9132;47.946;10.394;2024-03-07T01:43:03;94343.66;;;2.40;100.00
18014;BME280;9132;47.946;10.394;2024-03-07T01:45:30;94331.47;;;2.40;100.00
18014;BME280;9132;47.946;10.394;2024-03-07T01:47:59;94333.91;;;2.42;100.00
18014;BME280;9132;47.946;10.394;2024-03-07T01:50:25;94327.06;;;2.41;100.00
18014;BME280;9132;47.946;10.394;2024-03-07T01:52:52;94328.88;;;2.40;100.00
18014;BME280;9132;47.946;10.394;2024-03-07T01:55:21;94321.88;;;2.41;100.00
18014;BME280;9132;47.946;10.394;2024-03-07T01:57:48;94319.25;;;2.41;100.00
18014;BME280;9132;47.946;10.394;2024-03-07T02:00:15;94323.50;;;2.42;100.00
18014;BME280;9132;47.946;10.394;2024-03-07T02:02:43;94315.97;;;2.39;100.00
18014;BME280;9132;47.946;10.394;2024-03-07T02:05:11;94317.06;;;2.36;100.00
18014;BME280;9132;47.946;10.394;2024-03-07T02:07:38;94319.66;;;2.36;100.00
18014;BME280;9132;47.946;10.394;2024-03-07T02:10:06;94315.16;;;2.38;100.00
18014;BME280;9132;47.946;10.394;2024-03-07T02:12:34;94315.59;;;2.34;100.00
18014;BME280;9132;47.946;10.394;2024-03-07T02:15:01;94314.75;;;2.33;100.00
18014;BME280;9132;47.946;10.394;2024-03-07T02:17:28;94310.50;;;2.32;100.00
18014;BME280;9132;47.946;10.394;2024-03-07T02:19:55;94303.50;;;2.32;100.00
18014;BME280;9132;47.946;10.394;2024-03-07T02:22:23;94310.50;;;2.32;100.00
18014;BME280;9132;47.946;10.394;2024-03-07T02:24:51;94304.19;;;2.35;100.00
18014;BME280;9132;47.946;10.394;2024-03-07T02:27:18;94301.59;;;2.35;100.00
18014;BME280;9132;47.946;10.394;2024-03-07T02:29:44;94303.38;;;2.34;100.00
18014;BME280;9132;47.946;10.394;2024-03-07T02:32:12;94299.97;;;2.34;100.00
18014;BME280;9132;47.946;10.394;2024-03-07T02:34:38;94292.16;;;2.34;100.00
18014;BME280;9132;47.946;10.394;2024-03-07T02:37:05;94298.31;;;2.32;100.00
18014;BME280;9132;47.946;10.394;2024-03-07T02:39:33;94288.97;;;2.30;100.00
18014;BME280;9132;47.946;10.394;2024-03-07T02:41:59;94293.25;;;2.31;100.00
18014;BME280;9132;47.946;10.394;2024-03-07T02:44:26;94296.66;;;2.31;100.00
18014;BME280;9132;47.946;10.394;2024-03-07T02:46:52;94288.84;;;2.31;100.00
18014;BME280;9132;47.946;10.394;2024-03-07T02:49:19;94292.28;;;2.32;100.00
18014;BME280;9132;47.946;10.394;2024-03-07T02:51:46;94286.53;;;2.28;100.00
18014;BME280;9132;47.946;10.394;2024-03-07T02:54:13;94289.25;;;2.27;100.00
18014;BME280;9132;47.946;10.394;2024-03-07T02:56:40;94295.97;;;2.29;100.00
18014;BME280;9132;47.946;10.394;2024-03-07T02:59:07;94283.94;;;2.28;100.00
18014;BME280;9132;47.946;10.394;2024-03-07T03:01:33;94290.78;;;2.29;100.00
18014;BME280;9132;47.946;10.394;2024-03-07T03:04:00;94289.41;;;2.25;100.00
18014;BME280;9132;47.946;10.394;2024-03-07T03:06:26;94281.75;;;2.24;100.00
18014;BME280;9132;47.946;10.394;2024-03-07T03:08:53;94281.44;;;2.27;100.00
18014;BME280;9132;47.946;10.394;2024-03-07T03:11:20;94282.84;;;2.31;100.00
18014;BME280;9132;47.946;10.394;2024-03-07T03:13:48;94286.25;;;2.31;100.00
18014;BME280;9132;47.946;10.394;2024-03-07T03:16:14;94283.22;;;2.36;100.00
18014;BME280;9132;47.946;10.394;2024-03-07T03:18:41;94284.34;;;2.34;100.00
18014;BME280;9132;47.946;10.394;2024-03-07T03:21:07;94279.13;;;2.34;100.00
18014;BME280;9132;47.946;10.394;2024-03-07T03:23:34;94276.53;;;2.34;100.00
18014;BME280;9132;47.946;10.394;2024-03-07T03:26:01;94276.66;;;2.32;100.00
18014;BME280;9132;47.946;10.394;2024-03-07T03:28:27;94278.97;;;2.35;100.00
18014;BME280;9132;47.946;10.394;2024-03-07T03:30:55;94276.25;;;2.37;100.00
18014;BME280;9132;47.946;10.394;2024-03-07T03:33:22;94270.19;;;2.36;100.00
18014;BME280;9132;47.946;10.394;2024-03-07T03:35:49;94270.88;;;2.38;100.00
18014;BME280;9132;47.946;10.394;2024-03-07T03:38:15;94267.03;;;2.42;100.00
18014;BME280;9132;47.946;10.394;2024-03-07T03:40:43;94268.00;;;2.41;100.00
18014;BME280;9132;47.946;10.394;2024-03-07T03:43:09;94262.69;;;2.43;100.00
18014;BME280;9132;47.946;10.394;2024-03-07T03:45:36;94263.63;;;2.42;100.00
18014;BME280;9132;47.946;10.394;2024-03-07T03:48:05;94261.81;;;2.42;100.00
18014;BME280;9132;47.946;10.394;2024-03-07T03:50:31;94262.81;;;2.41;100.00
18014;BME280;9132;47.946;10.394;2024-03-07T03:52:58;94258.97;;;2.36;100.00
18014;BME280;9132;47.946;10.394;2024-03-07T03:55:26;94265.56;;;2.40;100.00
18014;BME280;9132;47.946;10.394;2024-03-07T03:57:53;94257.75;;;2.40;100.00
18014;BME280;9132;47.946;10.394;2024-03-07T04:00:19;94254.84;;;2.43;100.00
18014;BME280;9132;47.946;10.394;2024-03-07T04:02:48;94256.78;;;2.41;100.00
18014;BME280;9132;47.946;10.394;2024-03-07T04:05:16;94254.97;;;2.41;100.00
18014;BME280;9132;47.946;10.394;2024-03-07T04:07:44;94253.06;;;2.43;100.00
18014;BME280;9132;47.946;10.394;2024-03-07T04:10:12;94263.50;;;2.43;100.00
18014;BME280;9132;47.946;10.394;2024-03-07T04:12:40;94253.88;;;2.44;100.00
18014;BME280;9132;47.946;10.394;2024-03-07T04:15:07;94259.75;;;2.46;100.00
18014;BME280;9132;47.946;10.394;2024-03-07T04:17:34;94248.53;;;2.45;100.00
18014;BME280;9132;47.946;10.394;2024-03-07T04:20:01;94240.75;;;2.36;100.00
18014;BME280;9132;47.946;10.394;2024-03-07T04:22:32;94244.13;;;2.46;100.00
18014;BME280;9132;47.946;10.394;2024-03-07T04:24:58;94248.69;;;2.44;100.00
18014;BME280;9132;47.946;10.394;2024-03-07T04:27:25;94250.47;;;2.43;100.00
18014;BME280;9132;47.946;10.394;2024-03-07T04:29:52;94248.69;;;2.44;100.00
18014;BME280;9132;47.946;10.394;2024-03-07T04:32:18;94236.63;;;2.43;100.00
18014;BME280;9132;47.946;10.394;2024-03-07T04:34:45;94251.00;;;2.47;100.00
18014;BME280;9132;47.946;10.394;2024-03-07T04:37:11;94241.41;;;2.47;100.00
18014;BME280;9132;47.946;10.394;2024-03-07T04:39:39;94239.47;;;2.49;100.00
18014;BME280;9132;47.946;10.394;2024-03-07T04:42:08;94241.94;;;2.51;100.00
18014;BME280;9132;47.946;10.394;2024-03-07T04:44:36;94243.56;;;2.52;100.00
18014;BME280;9132;47.946;10.394;2024-03-07T04:47:03;94239.31;;;2.51;100.00
18014;BME280;9132;47.946;10.394;2024-03-07T04:49:32;94247.13;;;2.51;100.00
18014;BME280;9132;47.946;10.394;2024-03-07T04:51:59;94240.31;;;2.50;100.00
18014;BME280;9132;47.946;10.394;2024-03-07T04:54:27;94235.22;;;2.48;100.00
18014;BME280;9132;47.946;10.394;2024-03-07T04:56:55;94237.81;;;2.48;100.00
18014;BME280;9132;47.946;10.394;2024-03-07T04:59:24;94244.00;;;2.47;100.00
18014;BME280;9132;47.946;10.394;2024-03-07T05:01:51;94237.19;;;2.37;100.00
18014;BME280;9132;47.946;10.394;2024-03-07T05:04:17;94240.34;;;2.40;100.00
18014;BME280;9132;47.946;10.394;2024-03-07T05:06:45;94236.63;;;2.43;100.00
18014;BME280;9132;47.946;10.394;2024-03-07T05:09:13;94241.69;;;2.44;100.00
18014;BME280;9132;47.946;10.394;2024-03-07T05:11:48;94244.28;;;2.44;100.00
18014;BME280;9132;47.946;10.394;2024-03-07T05:14:18;94242.50;;;2.45;100.00
18014;BME280;9132;47.946;10.394;2024-03-07T05:16:45;94241.69;;;2.44;100.00
18014;BME280;9132;47.946;10.394;2024-03-07T05:19:11;94236.31;;;2.46;100.00
18014;BME280;9132;47.946;10.394;2024-03-07T05:21:38;94241.53;;;2.46;100.00
18014;BME280;9132;47.946;10.394;2024-03-07T05:24:06;94249.22;;;2.47;100.00
18014;BME280;9132;47.946;10.394;2024-03-07T05:26:33;94246.19;;;2.42;100.00
18014;BME280;9132;47.946;10.394;2024-03-07T05:29:02;94258.56;;;2.40;100.00
18014;BME280;9132;47.946;10.394;2024-03-07T05:31:34;94251.28;;;2.44;100.00
18014;BME280;9132;47.946;10.394;2024-03-07T05:34:01;94253.06;;;2.43;100.00
18014;BME280;9132;47.946;10.394;2024-03-07T05:36:30;94250.31;;;2.45;100.00
18014;BME280;9132;47.946;10.394;2024-03-07T05:38:57;94247.06;;;2.43;100.00
18014;BME280;9132;47.946;10.394;2024-03-07T05:41:24;94253.31;;;2.50;100.00
18014;BME280;9132;47.946;10.394;2024-03-07T05:43:53;94248.00;;;2.42;100.00
18014;BME280;9132;47.946;10.394;2024-03-07T05:46:20;94248.00;;;2.42;100.00
18014;BME280;9132;47.946;10.394;2024-03-07T05:48:48;94245.91;;;2.45;100.00
18014;BME280;9132;47.946;10.394;2024-03-07T05:51:17;94250.44;;;2.53;100.00
18014;BME280;9132;47.946;10.394;2024-03-07T05:53:43;94247.94;;;2.51;100.00
18014;BME280;9132;47.946;10.394;2024-03-07T05:56:10;94251.38;;;2.52;100.00
18014;BME280;9132;47.946;10.394;2024-03-07T05:58:36;94254.38;;;2.57;100.00
18014;BME280;9132;47.946;10.394;2024-03-07T06:01:03;94245.59;;;2.58;100.00
18014;BME280;9132;47.946;10.394;2024-03-07T06:03:29;94244.13;;;2.55;100.00
18014;BME280;9132;47.946;10.394;2024-03-07T06:05:57;94249.34;;;2.55;100.00
18014;BME280;9132;47.946;10.394;2024-03-07T06:08:24;94241.38;;;2.57;100.00
18014;BME280;9132;47.946;10.394;2024-03-07T06:10:50;94241.06;;;2.60;100.00
18014;BME280;9132;47.946;10.394;2024-03-07T06:13:17;94231.91;;;2.56;100.00
18014;BME280;9132;47.946;10.394;2024-03-07T06:15:44;94245.31;;;2.61;100.00
18014;BME280;9132;47.946;10.394;2024-03-07T06:18:11;94248.06;;;2.60;100.00
18014;BME280;9132;47.946;10.394;2024-03-07T06:20:39;94240.78;;;2.63;100.00
18014;BME280;9132;47.946;10.394;2024-03-07T06:23:07;94245.84;;;2.65;100.00
18014;BME280;9132;47.946;10.394;2024-03-07T06:25:35;94244.38;;;2.62;100.00
18014;BME280;9132;47.946;10.394;2024-03-07T06:28:04;94251.22;;;2.63;100.00
18014;BME280;9132;47.946;10.394;2024-03-07T06:30:36;94242.94;;;2.68;100.00
18014;BME280;9132;47.946;10.394;2024-03-07T06:33:03;94246.94;;;2.72;100.00
18014;BME280;9132;47.946;10.394;2024-03-07T06:35:30;94247.47;;;2.75;100.00
18014;BME280;9132;47.946;10.394;2024-03-07T06:37:56;94243.75;;;2.78;100.00
18014;BME280;9132;47.946;10.394;2024-03-07T06:40:24;94247.19;;;2.78;100.00
18014;BME280;9132;47.946;10.394;2024-03-07T06:42:51;94241.00;;;2.79;100.00
18014;BME280;9132;47.946;10.394;2024-03-07T06:45:18;94240.00;;;2.81;100.00
18014;BME280;9132;47.946;10.394;2024-03-07T06:47:44;94239.19;;;2.80;100.00
18014;BME280;9132;47.946;10.394;2024-03-07T06:50:12;94238.38;;;2.79;100.00
18014;BME280;9132;47.946;10.394;2024-03-07T06:52:41;94239.19;;;2.80;100.00
18014;BME280;9132;47.946;10.394;2024-03-07T06:55:08;94243.59;;;2.79;100.00
18014;BME280;9132;47.946;10.394;2024-03-07T06:57:36;94241.81;;;2.80;100.00
18014;BME280;9132;47.946;10.394;2024-03-07T07:00:03;94234.97;;;2.79;100.00
18014;BME280;9132;47.946;10.394;2024-03-07T07:02:37;94237.28;;;2.82;100.00
18014;BME280;9132;47.946;10.394;2024-03-07T07:05:04;94235.38;;;2.84;100.00
18014;BME280;9132;47.946;10.394;2024-03-07T07:07:32;94241.91;;;2.88;100.00
18014;BME280;9132;47.946;10.394;2024-03-07T07:10:01;94233.41;;;2.86;100.00
18014;BME280;9132;47.946;10.394;2024-03-07T07:12:28;94238.63;;;2.86;100.00
18014;BME280;9132;47.946;10.394;2024-03-07T07:14:56;94232.31;;;2.89;100.00
18014;BME280;9132;47.946;10.394;2024-03-07T07:17:22;94230.91;;;2.94;100.00
18014;BME280;9132;47.946;10.394;2024-03-07T07:19:50;94229.81;;;2.97;100.00
18014;BME280;9132;47.946;10.394;2024-03-07T07:22:17;94227.72;;;3.00;100.00
18014;BME280;9132;47.946;10.394;2024-03-07T07:24:44;94226.31;;;3.06;100.00
18014;BME280;9132;47.946;10.394;2024-03-07T07:27:10;94231.91;;;3.11;100.00
18014;BME280;9132;47.946;10.394;2024-03-07T07:29:37;94206.00;;;3.10;100.00
18014;BME280;9132;47.946;10.394;2024-03-07T07:32:06;94219.78;;;3.20;100.00
18014;BME280;9132;47.946;10.394;2024-03-07T07:34:32;94221.13;;;3.24;100.00
18014;BME280;9132;47.946;10.394;2024-03-07T07:36:59;94221.63;;;3.28;100.00
18014;BME280;9132;47.946;10.394;2024-03-07T07:39:25;94219.41;;;3.33;100.00
18014;BME280;9132;47.946;10.394;2024-03-07T07:41:54;94215.53;;;3.37;100.00
18014;BME280;9132;47.946;10.394;2024-03-07T07:44:21;94219.22;;;3.44;100.00
18014;BME280;9132;47.946;10.394;2024-03-07T07:46:48;94207.00;;;3.44;100.00
18014;BME280;9132;47.946;10.394;2024-03-07T07:49:16;94218.97;;;3.55;100.00
18014;BME280;9132;47.946;10.394;2024-03-07T07:51:42;94212.66;;;3.58;100.00
18014;BME280;9132;47.946;10.394;2024-03-07T07:54:09;94215.63;;;3.63;100.00
18014;BME280;9132;47.946;10.394;2024-03-07T07:56:35;94210.84;;;3.58;100.00
18014;BME280;9132;47.946;10.394;2024-03-07T07:59:02;94205.03;;;3.64;100.00
18014;BME280;9132;47.946;10.394;2024-03-07T08:01:29;94207.72;;;3.72;100.00
18014;BME280;9132;47.946;10.394;2024-03-07T08:03:56;94206.56;;;3.75;100.00
18014;BME280;9132;47.946;10.394;2024-03-07T08:06:25;94219.19;;;3.80;100.00
18014;BME280;9132;47.946;10.394;2024-03-07T08:08:51;94205.63;;;3.76;100.00
18014;BME280;9132;47.946;10.394;2024-03-07T08:11:18;94210.25;;;3.82;100.00
18014;BME280;9132;47.946;10.394;2024-03-07T08:13:44;94212.34;;;3.79;100.00
18014;BME280;9132;47.946;10.394;2024-03-07T08:16:13;94207.25;;;3.77;100.00
18014;BME280;9132;47.946;10.394;2024-03-07T08:18:39;94209.25;;;3.83;100.00
18014;BME280;9132;47.946;10.394;2024-03-07T08:21:06;94206.88;;;3.90;100.00
18014;BME280;9132;47.946;10.394;2024-03-07T08:23:37;94203.66;;;3.96;100.00
18014;BME280;9132;47.946;10.394;2024-03-07T08:26:03;94203.66;;;3.96;100.00
18014;BME280;9132;47.946;10.394;2024-03-07T08:28:30;94204.03;;;4.01;100.00
18014;BME280;9132;47.946;10.394;2024-03-07T08:30:57;94204.75;;;3.93;100.00
18014;BME280;9132;47.946;10.394;2024-03-07T08:33:24;94204.66;;;4.03;100.00
18014;BME280;9132;47.946;10.394;2024-03-07T08:35:51;94206.53;;;4.11;100.00
18014;BME280;9132;47.946;10.394;2024-03-07T08:38:18;94198.69;;;4.11;100.00
18014;BME280;9132;47.946;10.394;2024-03-07T08:40:47;94191.22;;;4.16;100.00
18014;BME280;9132;47.946;10.394;2024-03-07T08:43:13;94197.69;;;4.04;100.00
18014;BME280;9132;47.946;10.394;2024-03-07T08:45:40;94191.47;;;4.05;100.00
18014;BME280;9132;47.946;10.394;2024-03-07T08:48:07;94197.38;;;4.07;100.00
18014;BME280;9132;47.946;10.394;2024-03-07T08:50:34;94188.69;;;4.06;100.00
18014;BME280;9132;47.946;10.394;2024-03-07T08:53:03;94190.16;;;4.01;100.00
18014;BME280;9132;47.946;10.394;2024-03-07T08:55:30;94179.19;;;3.97;100.00
18014;BME280;9132;47.946;10.394;2024-03-07T08:57:58;94192.91;;;3.99;100.00
18014;BME280;9132;47.946;10.394;2024-03-07T09:00:25;94194.63;;;3.90;100.00
18014;BME280;9132;47.946;10.394;2024-03-07T09:02:53;94197.13;;;3.74;100.00
18014;BME280;9132;47.946;10.394;2024-03-07T09:05:21;94193.06;;;3.54;100.00
18014;BME280;9132;47.946;10.394;2024-03-07T09:07:48;94186.19;;;3.53;100.00
18014;BME280;9132;47.946;10.394;2024-03-07T09:10:15;94187.16;;;3.52;100.00
18014;BME280;9132;47.946;10.394;2024-03-07T09:12:42;94189.25;;;3.48;100.00
18014;BME280;9132;47.946;10.394;2024-03-07T09:15:11;94183.59;;;3.35;100.00
18014;BME280;9132;47.946;10.394;2024-03-07T09:17:39;94185.00;;;3.47;100.00
18014;BME280;9132;47.946;10.394;2024-03-07T09:20:07;94183.53;;;3.44;100.00
18014;BME280;9132;47.946;10.394;2024-03-07T09:22:34;94179.41;;;3.60;100.00
18014;BME280;9132;47.946;10.394;2024-03-07T09:25:01;94176.94;;;3.76;100.00
18014;BME280;9132;47.946;10.394;2024-03-07T09:27:27;94188.09;;;3.86;100.00
18014;BME280;9132;47.946;10.394;2024-03-07T09:29:54;94176.72;;;3.95;100.00
18014;BME280;9132;47.946;10.394;2024-03-07T09:32:22;94181.47;;;4.00;100.00
18014;BME280;9132;47.946;10.394;2024-03-07T09:34:49;94169.16;;;4.10;100.00
18014;BME280;9132;47.946;10.394;2024-03-07T09:37:16;94178.00;;;4.17;100.00
18014;BME280;9132;47.946;10.394;2024-03-07T09:39:43;94180.31;;;4.21;100.00
18014;BME280;9132;47.946;10.394;2024-03-07T09:42:09;94172.50;;;3.94;100.00
18014;BME280;9132;47.946;10.394;2024-03-07T09:44:38;94182.16;;;4.02;100.00
18014;BME280;9132;47.946;10.394;2024-03-07T09:47:07;94185.34;;;3.88;100.00
18014;BME280;9132;47.946;10.394;2024-03-07T09:49:35;94178.84;;;3.92;100.00
18014;BME280;9132;47.946;10.394;2024-03-07T09:52:04;94175.09;;;3.94;100.00
18014;BME280;9132;47.946;10.394;2024-03-07T09:54:33;94181.88;;;3.87;100.00
18014;BME280;9132;47.946;10.394;2024-03-07T09:57:02;94177.50;;;3.88;100.00
18014;BME280;9132;47.946;10.394;2024-03-07T09:59:32;94179.81;;;3.91;100.00
18014;BME280;9132;47.946;10.394;2024-03-07T10:02:03;94177.41;;;3.98;100.00
18014;BME280;9132;47.946;10.394;2024-03-07T10:04:40;94177.66;;;4.12;100.00
18014;BME280;9132;47.946;10.394;2024-03-07T10:07:10;94177.41;;;3.98;100.00
18014;BME280;9132;47.946;10.394;2024-03-07T10:09:39;94171.88;;;4.01;100.00
18014;BME280;9132;47.946;10.394;2024-03-07T10:12:07;94170.97;;;4.10;100.00
18014;BME280;9132;47.946;10.394;2024-03-07T10:14:35;94175.72;;;4.14;100.00
18014;BME280;9132;47.946;10.394;2024-03-07T10:17:02;94172.28;;;4.14;100.00
18014;BME280;9132;47.946;10.394;2024-03-07T10:19:29;94180.75;;;4.16;100.00
18014;BME280;9132;47.946;10.394;2024-03-07T10:21:58;94169.16;;;4.10;100.00
18014;BME280;9132;47.946;10.394;2024-03-07T10:24:27;94169.69;;;4.14;100.00
18014;BME280;9132;47.946;10.394;2024-03-07T10:26:54;94167.16;;;4.04;100.00
18014;BME280;9132;47.946;10.394;2024-03-07T10:29:23;94157.78;;;3.93;100.00
18014;BME280;9132;47.946;10.394;2024-03-07T10:31:50;94170.44;;;4.06;100.00
18014;BME280;9132;47.946;10.394;2024-03-07T10:34:16;94164.41;;;4.06;100.00
18014;BME280;9132;47.946;10.394;2024-03-07T10:36:44;94159.34;;;4.04;100.00
18014;BME280;9132;47.946;10.394;2024-03-07T10:39:12;94162.69;;;3.97;100.00
18014;BME280;9132;47.946;10.394;2024-03-07T10:41:44;94171.44;;;3.87;100.00
18014;BME280;9132;47.946;10.394;2024-03-07T10:44:18;94162.81;;;3.87;100.00
18014;BME280;9132;47.946;10.394;2024-03-07T10:46:51;94172.34;;;3.78;100.00
18014;BME280;9132;47.946;10.394;2024-03-07T10:49:19;94167.72;;;3.90;100.00
18014;BME280;9132;47.946;10.394;2024-03-07T10:51:57;94169.13;;;3.84;100.00
18014;BME280;9132;47.946;10.394;2024-03-07T10:54:34;94171.03;;;3.74;100.00
18014;BME280;9132;47.946;10.394;2024-03-07T10:57:16;94164.00;;;3.75;100.00
18014;BME280;9132;47.946;10.394;2024-03-07T10:59:50;94157.44;;;3.88;100.00
18014;BME280;9132;47.946;10.394;2024-03-07T11:02:24;94159.13;;;3.98;100.00
18014;BME280;9132;47.946;10.394;2024-03-07T11:04:54;94152.44;;;3.95;100.00
18014;BME280;9132;47.946;10.394;2024-03-07T11:07:22;94161.28;;;3.76;100.00
18014;BME280;9132;47.946;10.394;2024-03-07T11:09:51;94159.94;;;3.72;100.00
18014;BME280;9132;47.946;10.394;2024-03-07T11:12:19;94153.06;;;3.71;100.00
18014;BME280;9132;47.946;10.394;2024-03-07T11:14:48;94154.88;;;3.70;100.00
18014;BME280;9132;47.946;10.394;2024-03-07T11:17:17;94148.63;;;3.89;100.00
18014;BME280;9132;47.946;10.394;2024-03-07T11:19:45;94150.38;;;4.07;100.00
18014;BME280;9132;47.946;10.394;2024-03-07T11:22:28;94142.13;;;4.20;100.00
18014;BME280;9132;47.946;10.394;2024-03-07T11:25:01;94127.59;;;4.17;100.00
18014;BME280;9132;47.946;10.394;2024-03-07T11:27:32;94138.63;;;4.37;100.00
18014;BME280;9132;47.946;10.394;2024-03-07T11:30:04;94143.56;;;4.48;100.00
18014;BME280;9132;47.946;10.394;2024-03-07T11:32:34;94120.44;;;4.27;100.00
18014;BME280;9132;47.946;10.394;2024-03-07T11:35:04;94136.81;;;4.37;100.00
18014;BME280;9132;47.946;10.394;2024-03-07T11:37:39;94126.41;;;4.46;100.00
18014;BME280;9132;47.946;10.394;2024-03-07T11:40:43;94116.50;;;4.57;100.00
18014;BME280;9132;47.946;10.394;2024-03-07T11:43:11;94112.25;;;4.56;100.00
18014;BME280;9132;47.946;10.394;2024-03-07T11:45:38;94120.38;;;4.53;100.00
18014;BME280;9132;47.946;10.394;2024-03-07T11:48:10;94122.19;;;4.45;100.00
18014;BME280;9132;47.946;10.394;2024-03-07T11:50:37;94115.97;;;4.54;100.00
18014;BME280;9132;47.946;10.394;2024-03-07T11:53:05;94110.28;;;4.58;100.00
18014;BME280;9132;47.946;10.394;2024-03-07T11:55:33;94109.31;;;4.59;100.00
18014;BME280;9132;47.946;10.394;2024-03-07T11:58:07;94113.25;;;4.63;100.00
18014;BME280;9132;47.946;10.394;2024-03-07T12:00:34;94106.88;;;4.58;100.00
18014;BME280;9132;47.946;10.394;2024-03-07T12:03:00;94113.91;;;4.57;100.00
18014;BME280;9132;47.946;10.394;2024-03-07T12:05:26;94101.78;;;4.56;100.00
18014;BME280;9132;47.946;10.394;2024-03-07T12:07:53;94106.06;;;4.65;100.00
18014;BME280;9132;47.946;10.394;2024-03-07T12:10:20;94103.50;;;4.74;100.00
18014;BME280;9132;47.946;10.394;2024-03-07T12:12:51;94098.56;;;4.71;100.00
18014;BME280;9132;47.946;10.394;2024-03-07T12:15:17;94101.19;;;4.71;100.00
18014;BME280;9132;47.946;10.394;2024-03-07T12:17:46;94096.28;;;4.68;100.00
18014;BME280;9132;47.946;10.394;2024-03-07T12:20:14;94100.69;;;4.67;100.00
18014;BME280;9132;47.946;10.394;2024-03-07T12:22:56;94095.28;;;4.69;100.00
18014;BME280;9132;47.946;10.394;2024-03-07T12:25:23;94093.34;;;4.79;100.00
18014;BME280;9132;47.946;10.394;2024-03-07T12:28:03;94093.03;;;4.74;100.00
18014;BME280;9132;47.946;10.394;2024-03-07T12:30:35;94091.41;;;4.81;100.00
18014;BME280;9132;47.946;10.394;2024-03-07T12:33:03;94083.41;;;4.74;100.00
18014;BME280;9132;47.946;10.394;2024-03-07T12:35:32;94086.34;;;4.87;100.00
18014;BME280;9132;47.946;10.394;2024-03-07T12:37:59;94081.63;;;4.91;100.00
18014;BME280;9132;47.946;10.394;2024-03-07T12:40:26;94072.31;;;4.97;100.00
18014;BME280;9132;47.946;10.394;2024-03-07T12:42:55;94069.72;;;5.05;100.00
18014;BME280;9132;47.946;10.394;2024-03-07T12:45:23;94068.25;;;5.10;100.00
18014;BME280;9132;47.946;10.394;2024-03-07T12:47:51;94064.50;;;5.05;100.00
18014;BME280;9132;47.946;10.394;2024-03-07T12:50:20;94064.81;;;5.10;100.00
18014;BME280;9132;47.946;10.394;2024-03-07T12:52:47;94060.56;;;5.09;100.00
18014;BME280;9132;47.946;10.394;2024-03-07T12:55:15;94060.91;;;5.14;100.00
18014;BME280;9132;47.946;10.394;2024-03-07T12:57:43;94061.66;;;4.82;100.00
18014;BME280;9132;47.946;10.394;2024-03-07T13:00:11;94063.31;;;4.75;100.00
18014;BME280;9132;47.946;10.394;2024-03-07T13:02:46;94062.97;;;4.78;100.00